Time;durP1;ratioP1;P1;durP2;ratioP2;P2;SDS_P1;SDS_P2;PMS_P1;PMS_P2;Temp;Humidity;BMP_temperature;BMP_pressure;BME280_temperature;BME280_humidity;BME280_pressure;Samples;Min_cycle;Max_cycle;Signal;HPM_P1;HPM_P2
2022/04/23 00:00:53;;;;;;;22.75;13.32;;;;;;;9.75;66.44;100016.00;4915563;29;20115;-82
2022/04/23 00:03:20;;;;;;;24.77;12.25;;;;;;;9.79;66.53;100025.59;4915357;29;20151;-78
2022/04/23 00:05:47;;;;;;;20.63;11.85;;;;;;;9.77;66.61;100016.00;4917116;29;20056;-82
2022/04/23 00:08:15;;;;;;;22.55;12.35;;;;;;;9.83;66.47;100019.53;4925906;29;20059;-81
2022/04/23 00:10:44;;;;;;;25.30;13.17;;;;;;;9.79;66.62;100006.47;4934214;29;20066;-78
2022/04/23 00:13:10;;;;;;;20.88;13.18;;;;;;;9.92;66.73;100018.75;4934005;29;20295;-81
2022/04/23 00:15:37;;;;;;;21.40;12.60;;;;;;;9.85;66.15;99990.84;4932955;29;20429;-80
2022/04/23 00:18:07;;;;;;;24.67;13.00;;;;;;;10.09;66.04;100029.34;4933105;29;20058;-80
2022/04/23 00:20:37;;;;;;;22.25;11.73;;;;;;;10.15;66.03;100024.16;4927622;29;20067;-82
2022/04/23 00:23:05;;;;;;;24.80;12.43;;;;;;;10.18;66.11;100032.00;4919861;29;20052;-82
2022/04/23 00:25:35;;;;;;;23.70;12.73;;;;;;;10.11;65.76;100013.66;4915165;29;20080;-82
2022/04/23 00:28:03;;;;;;;23.27;12.55;;;;;;;10.22;65.87;100019.88;4915373;29;20067;-80
2022/04/23 00:30:33;;;;;;;24.55;12.85;;;;;;;10.27;66.25;100032.94;4915551;29;20052;-81
2022/04/23 00:33:02;;;;;;;24.23;12.55;;;;;;;10.25;66.20;100017.25;4915193;29;20159;-80
2022/04/23 00:35:29;;;;;;;27.48;13.43;;;;;;;10.15;65.96;100008.50;4915205;29;20132;-80
2022/04/23 00:37:56;;;;;;;20.75;12.13;;;;;;;10.17;65.58;100003.28;4915168;29;20064;-81
2022/04/23 00:40:24;;;;;;;26.50;13.25;;;;;;;10.18;66.01;100003.28;4915041;29;20056;-84
2022/04/23 00:42:53;;;;;;;27.40;13.32;;;;;;;10.22;66.14;100019.88;4914876;29;20052;-83
2022/04/23 00:45:22;;;;;;;21.85;12.13;;;;;;;10.22;65.65;100001.59;4917446;29;20059;-80
2022/04/23 00:47:50;;;;;;;22.88;13.02;;;;;;;10.16;65.87;100002.41;4918378;29;20055;-82
2022/04/23 00:50:21;;;;;;;28.98;14.07;;;;;;;10.07;65.50;99976.25;4918899;29;20091;-80
2022/04/23 00:52:57;;;;;;;24.02;13.63;;;;;;;10.11;65.76;99998.00;4917224;29;20060;-82
2022/04/23 00:55:25;;;;;;;24.42;13.63;;;;;;;10.03;65.56;99996.22;4918358;29;20074;-82
2022/04/23 00:57:52;;;;;;;29.13;14.20;;;;;;;9.97;65.61;99975.28;4918149;29;20059;-79
2022/04/23 01:00:19;;;;;;;26.02;14.60;;;;;;;10.15;65.50;100005.91;4917994;29;20063;-81
2022/04/23 01:02:46;;;;;;;23.75;13.52;;;;;;;10.01;65.32;99966.63;4918116;29;20067;-82
2022/04/23 01:05:14;;;;;;;24.08;13.60;;;;;;;10.14;65.18;99992.81;4918033;29;20060;-80
2022/04/23 01:07:44;;;;;;;23.38;14.32;;;;;;;10.29;65.38;99997.28;4918365;29;20060;-81
2022/04/23 01:10:12;;;;;;;22.27;12.68;;;;;;;10.02;65.46;99957.94;4918503;29;20593;-81
2022/04/23 01:12:39;;;;;;;23.48;13.48;;;;;;;10.15;65.32;99999.78;4918181;29;20123;-81
2022/04/23 01:15:08;;;;;;;19.77;11.82;;;;;;;10.11;65.39;99987.56;4917938;29;20624;-80
2022/04/23 01:17:36;;;;;;;23.50;13.55;;;;;;;9.97;65.78;99974.41;4937235;29;20107;-83
2022/04/23 01:20:12;;;;;;;21.67;12.93;;;;;;;10.00;66.01;99992.69;4930582;29;20434;-80
2022/04/23 01:22:44;;;;;;;26.92;13.50;;;;;;;9.90;65.82;99975.25;4929241;29;20091;-79
2022/04/23 01:25:14;;;;;;;21.83;13.93;;;;;;;10.01;65.90;99976.19;4936975;29;20066;-80
2022/04/23 01:27:42;;;;;;;25.85;13.50;;;;;;;10.06;65.99;99992.75;4936782;29;20048;-82
2022/04/23 01:30:10;;;;;;;24.98;13.68;;;;;;;10.02;65.69;99990.97;4935965;29;20138;-80
2022/04/23 01:32:37;;;;;;;22.95;13.98;;;;;;;9.91;65.99;99966.53;4937955;29;20505;-82
2022/04/23 01:35:05;;;;;;;22.52;12.75;;;;;;;9.96;66.33;100006.59;4936526;29;20051;-80
2022/04/23 01:37:32;;;;;;;23.77;13.23;;;;;;;9.85;66.03;99990.84;4936455;29;20063;-82
2022/04/23 01:39:59;;;;;;;21.50;13.50;;;;;;;9.84;66.50;99991.72;4950924;29;20055;-82
2022/04/23 01:42:26;;;;;;;25.77;12.70;;;;;;;9.83;66.78;99975.19;4950818;29;20522;-80
2022/04/23 01:44:53;;;;;;;28.17;12.77;;;;;;;9.87;67.34;99981.28;4936177;29;20059;-79
2022/04/23 01:47:21;;;;;;;23.52;12.38;;;;;;;9.95;66.92;99982.22;4936210;29;20056;-81
2022/04/23 01:49:48;;;;;;;25.85;13.30;;;;;;;9.97;66.27;99988.34;4936212;29;20598;-83
2022/04/23 01:52:14;;;;;;;23.30;12.43;;;;;;;9.92;66.36;99971.78;4936202;29;20115;-81
2022/04/23 01:54:41;;;;;;;21.92;11.20;;;;;;;9.98;66.68;99974.44;4936080;29;20047;-81
2022/04/23 01:57:08;;;;;;;22.20;11.35;;;;;;;10.02;66.67;99977.94;4936431;29;20073;-81
2022/04/23 01:59:35;;;;;;;23.55;12.35;;;;;;;10.09;66.30;99984.97;4935999;29;20057;-81
2022/04/23 02:02:02;;;;;;;35.63;25.77;;;;;;;10.10;66.66;99983.22;4936000;29;20195;-79
2022/04/23 02:04:29;;;;;;;31.50;18.23;;;;;;;10.11;66.45;99998.00;4935638;29;20415;-79
2022/04/23 02:06:56;;;;;;;25.67;14.82;;;;;;;10.03;66.32;99964.91;4935941;29;20058;-80
2022/04/23 02:09:24;;;;;;;25.75;16.50;;;;;;;10.18;66.37;99992.84;4935905;29;20506;-80
2022/04/23 02:11:52;;;;;;;26.08;15.88;;;;;;;10.21;65.70;99990.25;4946948;23;20067;-79
2022/04/23 02:14:19;;;;;;;22.40;14.20;;;;;;;10.11;66.39;99977.13;4915732;29;20089;-79
2022/04/23 02:16:45;;;;;;;24.48;14.52;;;;;;;10.14;66.04;99971.94;4916867;29;20052;-80
2022/04/23 02:19:13;;;;;;;30.30;13.15;;;;;;;10.18;66.35;99971.09;4916613;29;20094;-81
2022/04/23 02:21:40;;;;;;;24.05;12.85;;;;;;;10.30;66.37;99992.06;4916752;29;20052;-81
2022/04/23 02:24:08;;;;;;;26.08;13.93;;;;;;;10.31;65.71;100001.69;4916472;29;20055;-82
2022/04/23 02:26:35;;;;;;;25.20;13.50;;;;;;;10.29;65.82;99992.06;4916931;29;20066;-81
2022/04/23 02:29:02;;;;;;;29.98;13.70;;;;;;;10.38;65.63;100000.84;4917145;29;20064;-81
2022/04/23 02:31:29;;;;;;;23.95;13.70;;;;;;;10.32;65.31;99995.56;4916412;29;20425;-79
2022/04/23 02:33:57;;;;;;;24.80;12.85;;;;;;;10.23;65.61;99966.78;4916666;29;20089;-81
2022/04/23 02:36:24;;;;;;;25.23;13.98;;;;;;;10.48;65.65;100001.78;4916770;29;20395;-79
2022/04/23 02:38:51;;;;;;;24.40;14.55;;;;;;;10.54;65.21;99998.31;4916405;29;20063;-80
2022/04/23 02:41:18;;;;;;;26.67;13.63;;;;;;;10.59;65.54;100001.84;4915425;29;20066;-82
2022/04/23 02:43:45;;;;;;;23.80;13.18;;;;;;;10.56;65.37;99996.59;4916493;29;20162;-81
2022/04/23 02:46:14;;;;;;;29.33;14.38;;;;;;;10.59;65.27;99989.66;4916428;29;20054;-80
2022/04/23 02:48:42;;;;;;;24.33;14.27;;;;;;;10.59;65.54;99983.56;4916395;29;20063;-82
2022/04/23 02:51:15;;;;;;;28.55;13.90;;;;;;;10.64;65.26;99995.75;4916733;29;20052;-79
2022/04/23 02:53:43;;;;;;;31.33;15.75;;;;;;;10.65;65.28;99981.84;4916233;29;20056;-79
2022/04/23 02:56:16;;;;;;;25.63;14.63;;;;;;;10.69;65.22;99984.47;4915082;29;20056;-80
2022/04/23 02:58:44;;;;;;;27.13;17.00;;;;;;;10.69;64.82;99987.06;4916430;29;20143;-82
2022/04/23 03:01:11;;;;;;;32.85;22.85;;;;;;;10.55;65.02;99958.28;4916193;29;20056;-80
2022/04/23 03:03:40;;;;;;;41.78;27.02;;;;;;;10.69;64.95;99984.47;4916237;29;20056;-81
2022/04/23 03:06:10;;;;;;;36.78;25.80;;;;;;;10.72;65.22;100001.03;4915977;29;20462;-79
2022/04/23 03:08:41;;;;;;;37.35;25.77;;;;;;;10.77;64.83;99982.78;4915704;29;20059;-79
2022/04/23 03:11:08;;;;;;;36.83;23.75;;;;;;;10.79;65.06;99989.75;4916141;29;20064;-83
2022/04/23 03:13:36;;;;;;;29.48;17.48;;;;;;;10.79;65.01;99987.13;4916485;29;20091;-80
2022/04/23 03:16:04;;;;;;;28.42;15.77;;;;;;;10.70;64.84;99983.63;4916241;29;20063;-82
2022/04/23 03:18:31;;;;;;;29.73;16.38;;;;;;;10.79;64.82;99991.50;4915440;29;20084;-81
2022/04/23 03:20:58;;;;;;;28.35;15.98;;;;;;;10.89;64.46;99985.44;4923598;29;20044;-79
2022/04/23 03:23:25;;;;;;;29.20;16.38;;;;;;;10.81;64.63;99945.34;4925218;29;20498;-80
2022/04/23 03:25:53;;;;;;;30.08;15.00;;;;;;;11.00;64.31;99967.19;4925617;29;20138;-79
2022/04/23 03:28:22;;;;;;;31.23;15.00;;;;;;;11.09;64.13;99976.78;4924278;29;20056;-80
2022/04/23 03:30:50;;;;;;;27.48;14.98;;;;;;;11.08;64.07;99975.94;4924278;29;20080;-82
2022/04/23 03:33:17;;;;;;;26.98;15.75;;;;;;;11.13;64.40;99976.81;4930197;29;20059;-81
2022/04/23 03:35:44;;;;;;;29.17;14.93;;;;;;;11.18;63.93;99992.50;4922381;29;20135;-81
2022/04/23 03:38:11;;;;;;;27.65;15.68;;;;;;;11.02;64.03;99953.25;4924152;29;20183;-83
2022/04/23 03:40:39;;;;;;;27.40;15.20;;;;;;;11.25;63.72;99991.66;4921769;29;20063;-78
2022/04/23 03:43:06;;;;;;;26.42;15.07;;;;;;;11.20;63.85;99975.94;4923065;29;20091;-80
2022/04/23 03:45:33;;;;;;;26.17;15.50;;;;;;;11.32;63.65;99997.78;4920988;29;20052;-80
2022/04/23 03:48:01;;;;;;;27.58;15.05;;;;;;;11.26;63.35;99962.03;4913889;29;20197;-79
2022/04/23 03:50:29;;;;;;;26.48;15.32;;;;;;;11.49;63.45;99983.00;4916345;29;20076;-79
2022/04/23 03:52:56;;;;;;;25.48;15.20;;;;;;;11.58;62.71;99976.91;4916479;29;20056;-81
2022/04/23 03:55:25;;;;;;;31.70;15.70;;;;;;;11.62;62.53;99978.66;4916918;29;20064;-80
2022/04/23 03:57:54;;;;;;;29.73;15.32;;;;;;;11.73;62.50;99981.28;4916793;29;20060;-78
2022/04/23 04:00:22;;;;;;;26.02;15.73;;;;;;;11.76;62.44;99978.66;4916506;29;20055;-80
2022/04/23 04:02:53;;;;;;;31.17;16.25;;;;;;;11.71;62.52;99956.84;4923150;29;20786;-79
2022/04/23 04:05:22;;;;;;;28.65;16.08;;;;;;;11.86;62.04;99980.41;4924935;29;20048;-78
2022/04/23 04:07:49;;;;;;;31.08;15.38;;;;;;;11.84;62.27;99984.75;4926274;29;20501;-81
2022/04/23 04:10:19;;;;;;;31.40;15.95;;;;;;;11.84;62.03;99977.78;4927117;29;20147;-80
2022/04/23 04:12:47;;;;;;;30.13;15.25;;;;;;;11.71;62.50;99969.94;4918616;29;20503;-77
2022/04/23 04:15:17;;;;;;;37.55;16.98;;;;;;;11.72;62.33;99977.75;4916116;29;20056;-81
2022/04/23 04:17:47;;;;;;;30.05;16.52;;;;;;;11.76;62.10;99978.66;4915274;29;20052;-79
2022/04/23 04:20:16;;;;;;;31.10;16.27;;;;;;;11.63;62.50;99949.00;4927415;29;20151;-82
2022/04/23 04:22:44;;;;;;;34.22;18.13;;;;;;;11.84;62.39;99984.75;4939325;29;20055;-80
2022/04/23 04:25:13;;;;;;;29.35;16.65;;;;;;;11.80;62.73;99962.06;4938917;29;20052;-81
2022/04/23 04:27:41;;;;;;;31.13;17.80;;;;;;;11.83;62.61;99960.34;4939667;29;20056;-78
2022/04/23 04:30:10;;;;;;;33.08;18.35;;;;;;;11.88;62.37;99973.47;4943628;29;20118;-79
2022/04/23 04:32:37;;;;;;;31.75;17.17;;;;;;;11.98;62.46;99985.69;4945591;29;20064;-80
2022/04/23 04:35:04;;;;;;;32.13;17.50;;;;;;;12.05;62.70;99989.16;4940225;29;20087;-81
2022/04/23 04:37:31;;;;;;;32.72;17.73;;;;;;;12.01;62.50;99974.31;4937495;29;20052;-81
2022/04/23 04:39:58;;;;;;;30.77;17.23;;;;;;;11.85;62.68;99963.84;4922008;29;20056;-80
2022/04/23 04:42:27;;;;;;;29.88;17.45;;;;;;;12.03;62.45;99986.53;4922592;29;20060;-77
2022/04/23 04:44:59;;;;;;;29.67;17.55;;;;;;;12.06;62.07;99976.03;4923159;29;20060;-79
2022/04/23 04:47:26;;;;;;;27.67;17.70;;;;;;;12.17;62.02;99990.88;4928965;29;20525;-78
2022/04/23 04:49:54;;;;;;;28.75;17.27;;;;;;;12.18;61.87;99998.75;4930536;29;20048;-76
2022/04/23 04:52:21;;;;;;;28.00;17.08;;;;;;;12.23;62.17;99993.50;4928242;29;20150;-79
2022/04/23 04:54:56;;;;;;;28.80;16.92;;;;;;;12.13;61.76;99949.88;4927724;29;20052;-78
2022/04/23 04:57:23;;;;;;;27.70;16.85;;;;;;;12.24;61.77;99956.84;4920277;29;20056;-78
2022/04/23 04:59:51;;;;;;;35.00;18.77;;;;;;;12.36;61.53;99969.03;4921561;29;20055;-80
2022/04/23 05:02:20;;;;;;;;;;;;;;;12.33;61.85;99986.53;4922292;29;20056;-80
2022/04/23 05:04:49;;;;;;;30.95;17.88;;;;;;;12.42;61.80;99986.50;4903986;29;19927;-81
2022/04/23 05:07:16;;;;;;;28.33;17.02;;;;;;;12.43;61.55;99962.03;4919036;29;20384;-80
2022/04/23 05:09:43;;;;;;;30.83;17.88;;;;;;;12.76;60.67;99989.88;4918590;29;20080;-81
2022/04/23 05:12:10;;;;;;;29.63;17.95;;;;;;;12.86;60.04;99988.09;4918004;29;20395;-78
2022/04/23 05:14:37;;;;;;;29.88;18.95;;;;;;;12.67;60.16;99924.41;4933990;29;20060;-79
2022/04/23 05:17:11;;;;;;;30.83;18.05;;;;;;;12.89;59.88;99980.22;4918925;29;20094;-79
2022/04/23 05:19:39;;;;;;;28.20;17.55;;;;;;;12.89;59.96;99975.84;4927027;29;20531;-79
2022/04/23 05:22:06;;;;;;;31.65;18.83;;;;;;;13.04;60.08;99969.66;4905183;29;20143;-79
2022/04/23 05:24:33;;;;;;;26.13;16.60;;;;;;;13.16;60.04;99973.09;4906816;29;20052;-80
2022/04/23 05:27:00;;;;;;;29.13;17.25;;;;;;;13.01;60.40;99969.66;4898825;29;20462;-78
2022/04/23 05:29:27;;;;;;;33.08;20.10;;;;;;;13.00;60.54;99956.59;4899123;29;20507;-82
2022/04/23 05:31:56;;;;;;;28.75;18.83;;;;;;;13.15;60.34;99980.09;4901161;29;20072;-79
2022/04/23 05:34:28;;;;;;;31.20;19.45;;;;;;;13.26;59.86;99972.16;4902350;29;20061;-79
2022/04/23 05:36:55;;;;;;;29.20;18.10;;;;;;;13.43;59.81;99979.97;4898679;29;20519;-78
2022/04/23 05:39:23;;;;;;;29.25;17.48;;;;;;;13.35;59.00;99945.91;4899788;29;20597;-78
2022/04/23 05:41:51;;;;;;;30.60;17.83;;;;;;;13.49;58.51;99969.44;4900036;29;20067;-79
2022/04/23 05:44:18;;;;;;;28.13;17.67;;;;;;;13.45;58.99;99944.97;4915057;29;20060;-80
2022/04/23 05:46:45;;;;;;;27.23;17.75;;;;;;;13.82;58.21;99980.56;4918542;29;20055;-78
2022/04/23 05:49:13;;;;;;;27.95;17.20;;;;;;;14.05;57.61;99983.00;4918648;29;20060;-80
2022/04/23 05:52:02;;;;;;;27.53;17.83;;;;;;;14.13;57.62;99976.81;4917732;29;20429;-78
2022/04/23 05:54:28;;;;;;;28.95;17.58;;;;;;;13.88;56.62;99893.88;4918253;29;20060;-78
2022/04/23 05:56:55;;;;;;;26.02;16.65;;;;;;;14.54;56.02;99972.00;4916876;29;20063;-78
2022/04/23 05:59:30;;;;;;;22.02;15.13;;;;;;;14.66;55.57;99961.38;4918484;29;20056;-78
2022/04/23 06:02:00;;;;;;;28.42;16.63;;;;;;;14.79;54.50;99966.50;4918423;29;20084;-77
2022/04/23 06:04:29;;;;;;;22.00;14.85;;;;;;;14.97;54.35;99976.78;4932750;29;20483;-79
2022/04/23 06:06:56;;;;;;;24.20;14.75;;;;;;;15.09;53.86;99973.13;4917750;29;20079;-79
2022/04/23 06:09:24;;;;;;;21.67;14.48;;;;;;;15.30;53.24;99962.28;4932567;29;20090;-77
2022/04/23 06:11:53;;;;;;;23.80;14.93;;;;;;;15.68;52.91;99966.13;4917420;29;20426;-78
2022/04/23 06:14:20;;;;;;;22.77;14.18;;;;;;;15.87;51.52;99931.59;4917549;29;20538;-78
2022/04/23 06:16:48;;;;;;;20.63;13.07;;;;;;;16.33;50.22;99963.28;4917691;29;20087;-79
2022/04/23 06:19:17;;;;;;;16.52;10.93;;;;;;;16.58;48.79;99937.31;4916553;29;20132;-79
2022/04/23 06:21:45;;;;;;;20.38;11.55;;;;;;;16.70;48.53;99967.84;4917803;29;20056;-78
2022/04/23 06:24:13;;;;;;;15.95;10.55;;;;;;;16.78;48.13;99965.91;4917625;29;20510;-78
2022/04/23 06:26:42;;;;;;;19.60;11.15;;;;;;;16.92;47.74;99949.81;4917491;29;20107;-78
2022/04/23 06:29:10;;;;;;;17.85;11.18;;;;;;;17.03;47.50;99968.06;4917351;29;20075;-78
2022/04/23 06:31:38;;;;;;;18.35;10.90;;;;;;;16.96;47.57;99967.31;4916966;29;20430;-80
2022/04/23 06:34:07;;;;;;;14.07;9.93;;;;;;;16.78;47.73;99983.53;4917742;29;20119;-79
2022/04/23 06:36:36;;;;;;;15.98;10.57;;;;;;;16.40;48.26;99977.22;4916939;29;20086;-78
2022/04/23 06:39:05;;;;;;;15.43;9.63;;;;;;;15.54;49.99;99979.47;4918688;29;20052;-79
2022/04/23 06:41:35;;;;;;;14.68;9.10;;;;;;;15.11;50.99;99980.09;4917937;29;20079;-79
2022/04/23 06:44:04;;;;;;;14.18;10.10;;;;;;;14.74;51.82;99975.31;4916010;29;20062;-80
2022/04/23 06:46:32;;;;;;;15.95;10.88;;;;;;;14.61;52.62;99993.88;4917031;29;20111;-79
2022/04/23 06:49:05;;;;;;;14.88;11.15;;;;;;;14.46;52.48;99987.00;4915880;29;20452;-78
2022/04/23 06:51:37;;;;;;;19.50;12.85;;;;;;;14.29;53.75;99976.66;4917212;29;20056;-80
2022/04/23 06:54:06;;;;;;;20.67;13.27;;;;;;;14.08;53.46;99935.69;4916785;29;20063;-80
2022/04/23 06:56:33;;;;;;;20.67;12.98;;;;;;;14.43;53.69;99971.22;4917053;29;20075;-78
2022/04/23 06:59:02;;;;;;;20.92;13.07;;;;;;;14.36;53.06;99964.31;4917184;29;20051;-80
2022/04/23 07:01:31;;;;;;;19.50;12.13;;;;;;;14.59;52.42;100004.41;4916802;29;20114;-81
2022/04/23 07:03:58;;;;;;;19.42;11.60;;;;;;;14.81;52.45;99981.34;4925656;29;20055;-77
2022/04/23 07:06:25;;;;;;;17.67;11.30;;;;;;;15.04;51.61;99986.34;4925858;29;20078;-81
2022/04/23 07:08:54;;;;;;;19.67;11.23;;;;;;;15.28;51.45;99971.09;4925172;29;20063;-85
2022/04/23 07:11:23;;;;;;;19.15;12.55;;;;;;;15.55;50.88;99983.88;4927814;29;20083;-82
2022/04/23 07:13:50;;;;;;;18.88;12.23;;;;;;;15.51;50.48;99947.94;4909486;29;20148;-80
2022/04/23 07:16:18;;;;;;;19.10;12.43;;;;;;;15.59;50.14;99939.91;4925479;29;20055;-80
2022/04/23 07:18:46;;;;;;;26.75;12.88;;;;;;;15.87;49.84;99943.00;4927865;29;20533;-80
2022/04/23 07:21:14;;;;;;;20.20;12.88;;;;;;;16.05;49.35;99968.19;4923528;29;20514;-79
2022/04/23 07:26:34;;;;;;;19.08;13.38;;;;;;;16.30;49.16;99975.63;4925663;29;20056;-79
2022/04/23 07:29:07;;;;;;;21.63;13.45;;;;;;;16.36;48.07;99976.38;4923824;29;20044;-78
2022/04/23 07:31:37;;;;;;;20.55;14.25;;;;;;;16.40;48.07;99971.06;4925596;29;20245;-80
2022/04/23 07:39:55;;;;;;;23.95;14.32;;;;;;;16.89;47.00;99959.59;4916598;29;20043;-80
2022/04/23 07:42:23;;;;;;;20.00;14.40;;;;;;;17.15;46.36;99972.22;4928600;29;20047;-80
2022/04/23 07:44:50;;;;;;;22.08;14.82;;;;;;;17.15;46.04;99943.19;4926678;29;20056;-80
2022/04/23 07:47:19;;;;;;;21.15;14.70;;;;;;;17.32;45.64;99937.53;4924192;29;20052;-80
2022/04/23 07:49:50;;;;;;;24.80;15.88;;;;;;;17.50;45.34;99945.00;4925000;29;20102;-76
2022/04/23 07:52:20;;;;;;;24.00;15.13;;;;;;;17.58;44.67;99929.00;4925354;29;20056;-78
2022/04/23 07:54:50;;;;;;;23.27;15.15;;;;;;;17.96;44.50;99973.00;4930615;29;20052;-80
2022/04/23 07:57:22;;;;;;;23.67;15.90;;;;;;;18.17;43.68;99968.03;4929409;29;20506;-80
2022/04/23 07:59:52;;;;;;;23.10;15.73;;;;;;;18.42;42.96;99960.34;4930868;29;20082;-79
2022/04/23 08:02:20;;;;;;;23.02;14.63;;;;;;;18.57;42.53;99948.47;4927689;29;20099;-79
2022/04/23 08:04:48;;;;;;;27.33;15.45;;;;;;;18.44;42.39;99955.00;4927498;29;20059;-79
2022/04/23 08:07:15;;;;;;;28.05;16.02;;;;;;;18.16;42.96;99932.81;4928812;29;20122;-82
2022/04/23 08:09:43;;;;;;;21.55;14.88;;;;;;;18.42;42.39;99947.97;4929520;29;20502;-81
2022/04/23 08:12:12;;;;;;;24.42;15.55;;;;;;;18.37;42.20;99904.94;4927829;29;20549;-82
2022/04/23 08:14:40;;;;;;;24.85;15.00;;;;;;;18.49;41.82;99914.28;4928324;29;20079;-79
2022/04/23 08:17:07;;;;;;;26.75;13.65;;;;;;;18.62;41.38;99935.97;4928413;29;20576;-82
2022/04/23 08:19:35;;;;;;;23.20;15.10;;;;;;;18.66;41.01;99937.59;4928264;29;20060;-78
2022/04/23 08:22:06;;;;;;;23.20;14.50;;;;;;;18.63;41.10;99943.88;4928196;29;20457;-81
2022/04/23 08:24:33;;;;;;;24.98;14.27;;;;;;;18.21;41.17;99883.31;4929932;29;20080;-79
2022/04/23 08:27:01;;;;;;;18.98;14.00;;;;;;;18.40;41.58;99941.00;4936980;29;20094;-80
2022/04/23 08:32:17;;;;;;;23.65;15.05;;;;;;;18.14;41.76;99933.78;4938560;29;20062;-79
2022/04/23 08:34:46;;;;;;;22.00;14.70;;;;;;;17.93;41.99;99906.97;4939410;29;20401;-80
2022/04/23 08:37:13;;;;;;;22.05;14.00;;;;;;;18.29;41.20;99935.13;4938711;29;20052;-79
2022/04/23 08:39:42;;;;;;;21.42;13.45;;;;;;;18.33;40.58;99936.78;4938484;29;20134;-79
2022/04/23 08:42:11;;;;;;;20.65;13.15;;;;;;;18.45;40.39;99947.00;4936983;29;20428;-79
2022/04/23 08:44:39;;;;;;;18.60;12.43;;;;;;;18.40;40.56;99933.91;4938352;29;20114;-79
2022/04/23 08:47:08;;;;;;;23.30;13.63;;;;;;;18.36;41.03;99939.34;4938100;29;20146;-78
2022/04/23 08:49:42;;;;;;;19.63;12.88;;;;;;;17.72;41.59;99911.00;4938613;29;20513;-78
2022/04/23 08:52:22;;;;;;;20.45;13.02;;;;;;;17.68;41.83;99935.78;4932942;29;20048;-77
2022/04/23 08:54:53;;;;;;;20.05;13.30;;;;;;;17.45;41.84;99875.59;4922600;29;20155;-79
2022/04/23 08:57:20;;;;;;;22.98;15.07;;;;;;;17.69;42.04;99934.88;4899955;29;20056;-79
2022/04/23 08:59:51;;;;;;;20.50;14.70;;;;;;;17.69;42.16;99920.81;4900120;29;20147;-79
2022/04/23 09:02:26;;;;;;;23.67;14.15;;;;;;;18.03;41.78;99930.56;4915852;29;20043;-77
2022/04/23 09:04:55;;;;;;;22.85;14.40;;;;;;;18.30;40.87;99927.13;4927837;29;20052;-79
2022/04/23 09:07:26;;;;;;;20.70;12.77;;;;;;;18.58;39.94;99913.16;4927909;29;20502;-78
2022/04/23 09:09:58;;;;;;;18.17;11.77;;;;;;;18.61;39.05;99891.91;4927260;29;20119;-79
2022/04/23 09:12:27;;;;;;;16.77;11.52;;;;;;;19.06;38.60;99923.25;4928685;29;20063;-79
2022/04/23 09:23:38;;;;;;;16.65;9.68;;;;;;;18.65;38.69;99903.25;4926729;29;20060;-79
2022/04/23 09:23:41;;;;;;;26.85;12.18;;;;;;;18.52;38.55;99923.91;4928298;29;20051;-81
2022/04/23 09:26:18;;;;;;;14.82;8.63;;;;;;;18.67;38.60;99927.88;4927788;29;20052;-80
2022/04/23 09:28:50;;;;;;;10.63;6.82;;;;;;;18.67;38.05;99922.59;4926259;29;20194;-79
2022/04/23 09:31:24;;;;;;;10.52;7.28;;;;;;;18.67;38.41;99922.59;4925255;29;20048;-78
2022/04/23 09:33:54;;;;;;;12.55;6.50;;;;;;;18.83;37.94;99927.44;4927015;29;20047;-79
2022/04/23 09:36:21;;;;;;;11.98;6.68;;;;;;;18.51;38.29;99895.72;4927632;29;20526;-78
2022/04/23 09:39:03;;;;;;;10.25;7.25;;;;;;;18.20;39.29;99905.38;4927124;29;20056;-79
2022/04/23 09:41:33;;;;;;;9.35;6.93;;;;;;;18.09;39.32;99917.16;4927295;29;20072;-80
2022/04/23 09:44:09;;;;;;;10.45;7.05;;;;;;;18.10;39.60;99925.03;4924384;29;20048;-78
2022/04/23 09:46:45;;;;;;;15.02;7.13;;;;;;;17.93;39.72;99914.06;4926279;29;20067;-80
2022/04/23 09:49:31;;;;;;;12.23;8.88;;;;;;;17.94;39.40;99921.06;4925347;29;20056;-78
2022/04/23 09:52:00;;;;;;;10.38;6.28;;;;;;;17.87;39.66;99912.41;4922796;29;20084;-77
2022/04/23 09:54:28;;;;;;;9.48;6.63;;;;;;;18.16;39.20;99909.03;4924488;29;20111;-78
2022/04/23 09:56:56;;;;;;;17.25;6.32;;;;;;;18.10;38.82;99913.59;4928732;29;20043;-78
2022/04/23 09:59:24;;;;;;;8.40;5.43;;;;;;;18.08;38.73;99875.78;4921971;29;20083;-80
2022/04/23 10:01:55;;;;;;;7.35;4.45;;;;;;;17.95;38.83;99902.53;4915303;29;20076;-79
2022/04/23 10:04:25;;;;;;;7.80;4.88;;;;;;;18.15;38.71;99907.28;4913948;29;20052;-79
2022/04/23 10:06:57;;;;;;;9.88;4.97;;;;;;;18.03;38.79;99898.84;4924442;29;20048;-77
2022/04/23 10:09:27;;;;;;;8.05;5.07;;;;;;;17.85;39.17;99908.09;4925239;29;20081;-78
2022/04/23 10:12:04;;;;;;;8.10;5.40;;;;;;;17.63;39.19;99874.25;4927544;29;20065;-81
2022/04/23 10:14:40;;;;;;;10.68;5.65;;;;;;;17.54;39.62;99896.50;4927387;29;20075;-78
2022/04/23 10:17:12;;;;;;;7.32;5.78;;;;;;;17.50;39.69;99880.75;4927069;29;20204;-78
2022/04/23 10:19:41;;;;;;;7.63;5.15;;;;;;;17.61;38.83;99895.41;4925836;29;20078;-77
2022/04/23 10:22:19;;;;;;;8.15;6.10;;;;;;;17.64;39.42;99898.88;4927038;29;20111;-78
2022/04/23 10:24:57;;;;;;;11.00;6.80;;;;;;;17.67;39.90;99898.84;4926036;29;20130;-80
2022/04/23 10:27:27;;;;;;;11.02;7.32;;;;;;;17.94;39.76;99897.28;4927036;29;20532;-79
2022/04/23 10:29:59;;;;;;;;;;;;;;;18.05;40.01;99900.53;4925994;29;20521;-79
2022/04/23 10:32:38;;;;;;;12.40;7.90;;;;;;;18.23;39.18;99887.72;4926862;29;19933;-79
2022/04/23 10:35:18;;;;;;;16.25;7.70;;;;;;;18.19;39.64;99894.84;4927661;29;20043;-77
2022/04/23 10:37:52;;;;;;;11.43;6.65;;;;;;;18.12;38.94;99883.56;4924039;29;20056;-79
2022/04/23 10:40:20;;;;;;;9.80;6.68;;;;;;;18.30;38.70;99890.13;4923830;29;20056;-78
2022/04/23 10:43:10;;;;;;;9.20;6.70;;;;;;;18.23;38.44;99885.94;4924019;29;20079;-81
2022/04/23 10:45:40;;;;;;;;;;;;;;;18.09;39.38;99888.97;4934525;29;20078;-79
2022/04/23 10:48:29;;;;;;;11.88;7.50;;;;;;;18.18;38.60;99878.13;4936982;29;19926;-82
2022/04/23 10:51:08;;;;;;;11.43;7.35;;;;;;;18.23;38.56;99877.13;4936856;29;20055;-80
2022/04/23 10:53:42;;;;;;;;;;;;;;;17.99;39.53;99875.13;4936596;29;20059;-81
2022/04/23 10:56:19;;;;;;;12.48;8.30;;;;;;;18.20;38.80;99860.44;4923155;29;20416;-84
2022/04/23 10:58:48;;;;;;;12.38;8.13;;;;;;;18.36;38.78;99855.59;4917459;29;20055;-78
2022/04/23 11:01:25;;;;;;;14.65;7.03;;;;;;;18.63;38.10;99863.63;4917028;29;20115;-79
2022/04/23 11:03:57;;;;;;;10.32;6.10;;;;;;;18.49;37.52;99865.81;4919946;29;20082;-80
2022/04/23 11:13:29;;;;;;;8.57;5.63;;;;;;;18.66;37.28;99868.81;4935966;29;19965;-80
2022/04/23 11:16:17;;;;;;;9.10;6.03;;;;;;;18.32;37.35;99861.88;4935147;29;20047;-80
2022/04/23 11:18:51;;;;;;;8.35;5.82;;;;;;;18.12;37.51;99856.28;4935567;29;20068;-79
2022/04/23 11:21:27;;;;;;;8.13;5.50;;;;;;;18.07;37.35;99822.06;4934332;29;20513;-79
2022/04/23 11:23:58;;;;;;;9.73;5.35;;;;;;;18.33;37.05;99846.88;4917745;29;20062;-83
2022/04/23 11:26:44;;;;;;;8.57;4.95;;;;;;;18.17;36.92;99818.22;4917851;29;20054;-81
2022/04/23 11:29:15;;;;;;;12.60;5.18;;;;;;;18.34;36.54;99832.75;4917137;29;20455;-81
2022/04/23 11:31:59;;;;;;;7.25;5.25;;;;;;;18.27;36.62;99840.00;4917109;29;20092;-79
2022/04/23 11:34:28;;;;;;;9.93;5.47;;;;;;;18.39;37.14;99847.56;4915840;29;20431;-79
2022/04/23 11:36:56;;;;;;;8.45;5.65;;;;;;;18.44;37.12;99796.34;4916837;29;20151;-79
2022/04/23 11:39:30;;;;;;;9.32;5.13;;;;;;;18.62;36.47;99822.22;4916454;29;20064;-81
2022/04/23 11:41:59;;;;;;;7.38;5.30;;;;;;;18.46;36.22;99824.47;4916426;29;20084;-78
2022/04/23 11:47:39;;;;;;;13.30;5.97;;;;;;;18.21;37.30;99842.81;4922471;29;20138;-78
2022/04/23 11:50:15;;;;;;;6.80;4.85;;;;;;;18.40;36.62;99836.06;4926638;29;20052;-82
2022/04/23 11:52:44;;;;;;;9.13;4.80;;;;;;;18.67;36.03;99848.53;4919112;29;20061;-82
2022/04/23 11:55:22;;;;;;;6.57;5.40;;;;;;;18.34;36.61;99849.47;4921347;29;20059;-81
2022/04/23 11:57:54;;;;;;;7.70;5.43;;;;;;;18.06;36.88;99809.72;4930207;29;20183;-81
2022/04/23 12:00:22;;;;;;;8.32;4.80;;;;;;;18.18;36.51;99817.31;4925272;29;20056;-81